sensor_id;sensor_type;location;lat;lon;timestamp;pressure;altitude;pressure_sealevel;temperature;humidity
27144;BME280;14672;50.250;8.312;2024-03-02T00:01:05;97600.75;;;9.97;66.01
27144;BME280;14672;50.250;8.312;2024-03-02T00:03:32;97604.25;;;9.92;65.83
27144;BME280;14672;50.250;8.312;2024-03-02T00:05:58;97599.50;;;9.98;66.17
27144;BME280;14672;50.250;8.312;2024-03-02T00:08:25;97585.91;;;10.02;66.00
27144;BME280;14672;50.250;8.312;2024-03-02T00:11:01;97584.94;;;10.05;65.92
27144;BME280;14672;50.250;8.312;2024-03-02T00:13:29;97594.22;;;10.06;65.64
27144;BME280;14672;50.250;8.312;2024-03-02T00:15:56;97592.50;;;9.84;66.81
27144;BME280;14672;50.250;8.312;2024-03-02T00:18:34;97584.00;;;9.46;68.38
27144;BME280;14672;50.250;8.312;2024-03-02T00:21:01;97582.72;;;9.71;67.35
27144;BME280;14672;50.250;8.312;2024-03-02T00:23:32;97591.53;;;9.49;68.62
27144;BME280;14672;50.250;8.312;2024-03-02T00:25:59;97591.09;;;9.65;67.96
27144;BME280;14672;50.250;8.312;2024-03-02T00:28:35;97600.88;;;9.40;68.75
27144;BME280;14672;50.250;8.312;2024-03-02T00:31:08;97593.09;;;9.50;68.60
27144;BME280;14672;50.250;8.312;2024-03-02T00:33:52;97603.50;;;9.68;67.77
27144;BME280;14672;50.250;8.312;2024-03-02T00:36:25;97597.19;;;9.73;67.42
27144;BME280;14672;50.250;8.312;2024-03-02T00:38:53;97595.38;;;9.61;67.59
27144;BME280;14672;50.250;8.312;2024-03-02T00:41:30;97608.91;;;9.66;67.07
27144;BME280;14672;50.250;8.312;2024-03-02T00:44:04;97611.31;;;9.58;68.00
27144;BME280;14672;50.250;8.312;2024-03-02T00:46:39;97606.47;;;9.73;66.79
27144;BME280;14672;50.250;8.312;2024-03-02T00:49:24;97605.09;;;9.69;66.94
27144;BME280;14672;50.250;8.312;2024-03-02T00:51:52;97612.09;;;9.59;67.08
27144;BME280;14672;50.250;8.312;2024-03-02T00:54:25;97608.28;;;9.62;67.66
27144;BME280;14672;50.250;8.312;2024-03-02T00:56:54;97612.00;;;9.68;66.85
27144;BME280;14672;50.250;8.312;2024-03-02T00:59:23;97609.13;;;9.77;66.70
27144;BME280;14672;50.250;8.312;2024-03-02T01:01:49;97604.47;;;9.65;66.75
27144;BME280;14672;50.250;8.312;2024-03-02T01:04:15;97603.41;;;9.62;67.00
27144;BME280;14672;50.250;8.312;2024-03-02T01:06:43;97608.09;;;9.65;67.12
27144;BME280;14672;50.250;8.312;2024-03-02T01:09:09;97604.00;;;9.66;67.07
27144;BME280;14672;50.250;8.312;2024-03-02T01:11:34;97611.69;;;9.51;67.37
27144;BME280;14672;50.250;8.312;2024-03-02T01:14:00;97611.06;;;9.71;66.68
27144;BME280;14672;50.250;8.312;2024-03-02T01:16:26;97606.44;;;9.59;67.52
27144;BME280;14672;50.250;8.312;2024-03-02T01:18:52;97604.53;;;9.56;67.96
27144;BME280;14672;50.250;8.312;2024-03-02T01:21:18;97605.22;;;9.51;67.49
27144;BME280;14672;50.250;8.312;2024-03-02T01:23:44;97601.09;;;9.28;68.13
27144;BME280;14672;50.250;8.312;2024-03-02T01:26:09;97590.44;;;9.47;68.35
27144;BME280;14672;50.250;8.312;2024-03-02T01:28:35;97592.91;;;9.30;68.35
27144;BME280;14672;50.250;8.312;2024-03-02T01:31:01;97592.53;;;9.37;68.13
27144;BME280;14672;50.250;8.312;2024-03-02T01:33:27;97579.16;;;9.37;67.81
27144;BME280;14672;50.250;8.312;2024-03-02T01:35:53;97579.53;;;9.30;67.75
27144;BME280;14672;50.250;8.312;2024-03-02T01:38:19;97579.81;;;9.32;68.25
27144;BME280;14672;50.250;8.312;2024-03-02T01:40:45;97583.84;;;9.40;67.46
27144;BME280;14672;50.250;8.312;2024-03-02T01:43:11;97568.47;;;9.32;67.86
27144;BME280;14672;50.250;8.312;2024-03-02T01:45:37;97569.75;;;9.31;67.93
27144;BME280;14672;50.250;8.312;2024-03-02T01:48:05;97580.22;;;9.16;68.24
27144;BME280;14672;50.250;8.312;2024-03-02T01:50:33;97568.97;;;9.07;68.81
27144;BME280;14672;50.250;8.312;2024-03-02T01:53:01;97564.75;;;9.26;68.57
27144;BME280;14672;50.250;8.312;2024-03-02T01:55:28;97561.06;;;9.11;68.34
27144;BME280;14672;50.250;8.312;2024-03-02T01:57:56;97563.34;;;8.98;69.22
27144;BME280;14672;50.250;8.312;2024-03-02T02:00:22;97561.22;;;9.08;69.07
27144;BME280;14672;50.250;8.312;2024-03-02T02:02:50;97560.72;;;9.18;68.57
27144;BME280;14672;50.250;8.312;2024-03-02T02:05:17;97557.66;;;9.31;68.04
27144;BME280;14672;50.250;8.312;2024-03-02T02:07:43;97562.50;;;9.07;69.18
27144;BME280;14672;50.250;8.312;2024-03-02T02:10:12;97554.72;;;9.16;69.08
27144;BME280;14672;50.250;8.312;2024-03-02T02:12:41;97565.78;;;9.14;68.73
27144;BME280;14672;50.250;8.312;2024-03-02T02:15:28;97554.38;;;9.00;68.98
27144;BME280;14672;50.250;8.312;2024-03-02T02:17:55;97552.88;;;9.13;68.60
27144;BME280;14672;50.250;8.312;2024-03-02T02:20:21;97552.28;;;9.00;69.02
27144;BME280;14672;50.250;8.312;2024-03-02T02:25:24;97548.75;;;8.90;69.27
27144;BME280;14672;50.250;8.312;2024-03-02T02:27:49;97550.47;;;8.88;69.16
27144;BME280;14672;50.250;8.312;2024-03-02T02:30:23;97550.75;;;8.99;69.12
27144;BME280;14672;50.250;8.312;2024-03-02T02:32:49;97540.50;;;9.02;68.60
27144;BME280;14672;50.250;8.312;2024-03-02T02:35:15;97547.63;;;8.88;69.04
27144;BME280;14672;50.250;8.312;2024-03-02T02:37:41;97545.09;;;8.99;69.11
27144;BME280;14672;50.250;8.312;2024-03-02T02:40:11;97542.34;;;8.81;69.16
27144;BME280;14672;50.250;8.312;2024-03-02T02:42:40;97547.31;;;8.95;68.97
27144;BME280;14672;50.250;8.312;2024-03-02T02:45:07;97542.47;;;8.86;69.00
27144;BME280;14672;50.250;8.312;2024-03-02T02:47:33;97541.31;;;8.93;69.12
27144;BME280;14672;50.250;8.312;2024-03-02T02:50:03;97542.31;;;9.14;68.18
27144;BME280;14672;50.250;8.312;2024-03-02T02:52:34;97542.50;;;9.10;68.02
27144;BME280;14672;50.250;8.312;2024-03-02T02:55:04;97538.69;;;9.13;68.11
27144;BME280;14672;50.250;8.312;2024-03-02T02:57:31;97539.94;;;8.88;68.43
27144;BME280;14672;50.250;8.312;2024-03-02T03:00:08;97533.81;;;9.14;67.89
27144;BME280;14672;50.250;8.312;2024-03-02T03:02:44;97536.09;;;9.01;68.46
27144;BME280;14672;50.250;8.312;2024-03-02T03:05:13;97519.22;;;9.06;68.42
27144;BME280;14672;50.250;8.312;2024-03-02T03:07:40;97521.41;;;9.11;68.35
27144;BME280;14672;50.250;8.312;2024-03-02T03:10:07;97513.81;;;9.17;67.73
27144;BME280;14672;50.250;8.312;2024-03-02T03:12:34;97517.19;;;9.07;67.68
27144;BME280;14672;50.250;8.312;2024-03-02T03:15:00;97509.56;;;9.13;67.27
27144;BME280;14672;50.250;8.312;2024-03-02T03:17:26;97511.16;;;9.14;67.12
27144;BME280;14672;50.250;8.312;2024-03-02T03:19:55;97510.78;;;9.21;66.94
27144;BME280;14672;50.250;8.312;2024-03-02T03:22:21;97518.50;;;9.20;66.63
27144;BME280;14672;50.250;8.312;2024-03-02T03:24:47;97511.63;;;9.12;67.55
27144;BME280;14672;50.250;8.312;2024-03-02T03:27:12;97518.06;;;9.13;67.33
27144;BME280;14672;50.250;8.312;2024-03-02T03:29:38;97530.06;;;9.08;66.96
27144;BME280;14672;50.250;8.312;2024-03-02T03:32:04;97521.00;;;9.04;67.43
27144;BME280;14672;50.250;8.312;2024-03-02T03:34:35;97519.34;;;9.12;67.04
27144;BME280;14672;50.250;8.312;2024-03-02T03:37:01;97514.75;;;8.90;67.68
27144;BME280;14672;50.250;8.312;2024-03-02T03:39:27;97522.63;;;9.19;67.17
27144;BME280;14672;50.250;8.312;2024-03-02T03:41:52;97510.78;;;8.97;67.33
27144;BME280;14672;50.250;8.312;2024-03-02T03:44:18;97509.53;;;9.22;66.52
27144;BME280;14672;50.250;8.312;2024-03-02T03:46:44;97500.66;;;9.29;66.10
27144;BME280;14672;50.250;8.312;2024-03-02T03:49:10;97508.69;;;9.30;66.29
27144;BME280;14672;50.250;8.312;2024-03-02T03:51:36;97504.41;;;9.35;65.79
27144;BME280;14672;50.250;8.312;2024-03-02T03:54:01;97508.91;;;9.41;65.74
27144;BME280;14672;50.250;8.312;2024-03-02T03:56:27;97507.22;;;9.35;66.14
27144;BME280;14672;50.250;8.312;2024-03-02T03:58:53;97512.03;;;9.43;65.64
27144;BME280;14672;50.250;8.312;2024-03-02T04:01:19;97508.06;;;9.26;66.07
27144;BME280;14672;50.250;8.312;2024-03-02T04:03:45;97507.53;;;9.37;66.07
27144;BME280;14672;50.250;8.312;2024-03-02T04:06:10;97517.56;;;9.23;66.82
27144;BME280;14672;50.250;8.312;2024-03-02T04:08:36;97510.53;;;9.33;66.00
27144;BME280;14672;50.250;8.312;2024-03-02T04:11:02;97510.47;;;9.42;65.59
27144;BME280;14672;50.250;8.312;2024-03-02T04:13:28;97510.94;;;9.41;65.73
27144;BME280;14672;50.250;8.312;2024-03-02T04:15:54;97521.22;;;9.38;65.50
27144;BME280;14672;50.250;8.312;2024-03-02T04:18:19;97520.91;;;9.36;65.60
27144;BME280;14672;50.250;8.312;2024-03-02T04:20:45;97530.19;;;9.37;65.99
27144;BME280;14672;50.250;8.312;2024-03-02T04:23:11;97521.22;;;9.38;65.51
27144;BME280;14672;50.250;8.312;2024-03-02T04:25:37;97515.56;;;9.38;65.39
27144;BME280;14672;50.250;8.312;2024-03-02T04:28:03;97529.53;;;9.42;64.95
27144;BME280;14672;50.250;8.312;2024-03-02T04:30:28;97516.81;;;9.37;65.18
27144;BME280;14672;50.250;8.312;2024-03-02T04:32:54;97527.84;;;9.35;65.63
27144;BME280;14672;50.250;8.312;2024-03-02T04:35:20;97528.56;;;9.45;64.86
27144;BME280;14672;50.250;8.312;2024-03-02T04:37:46;97528.75;;;9.41;64.86
27144;BME280;14672;50.250;8.312;2024-03-02T04:40:12;97530.00;;;9.40;64.98
27144;BME280;14672;50.250;8.312;2024-03-02T04:42:38;97531.94;;;9.34;65.02
27144;BME280;14672;50.250;8.312;2024-03-02T04:45:04;97528.56;;;9.45;64.86
27144;BME280;14672;50.250;8.312;2024-03-02T04:47:30;97535.31;;;9.48;64.88
27144;BME280;14672;50.250;8.312;2024-03-02T04:49:56;97529.16;;;9.49;65.01
27144;BME280;14672;50.250;8.312;2024-03-02T04:52:21;97528.75;;;9.41;64.98
27144;BME280;14672;50.250;8.312;2024-03-02T04:54:47;97527.31;;;9.22;64.83
27144;BME280;14672;50.250;8.312;2024-03-02T04:57:31;97539.47;;;9.14;65.61
27144;BME280;14672;50.250;8.312;2024-03-02T04:59:57;97547.09;;;9.31;64.50
27144;BME280;14672;50.250;8.312;2024-03-02T05:02:23;97538.69;;;9.13;64.84
27144;BME280;14672;50.250;8.312;2024-03-02T05:04:49;97547.97;;;8.90;66.17
27144;BME280;14672;50.250;8.312;2024-03-02T05:07:14;97554.31;;;9.09;65.48
27144;BME280;14672;50.250;8.312;2024-03-02T05:09:40;97544.53;;;9.10;65.28
27144;BME280;14672;50.250;8.312;2024-03-02T05:12:06;97549.75;;;9.11;64.71
27144;BME280;14672;50.250;8.312;2024-03-02T05:14:55;97551.59;;;9.14;64.78
27144;BME280;14672;50.250;8.312;2024-03-02T05:17:21;97562.00;;;9.08;64.32
27144;BME280;14672;50.250;8.312;2024-03-02T05:19:47;97575.25;;;9.11;64.38
27144;BME280;14672;50.250;8.312;2024-03-02T05:22:13;97571.50;;;8.96;65.08
27144;BME280;14672;50.250;8.312;2024-03-02T05:24:39;97568.34;;;9.03;64.99
27144;BME280;14672;50.250;8.312;2024-03-02T05:27:04;97574.13;;;9.09;65.24
27144;BME280;14672;50.250;8.312;2024-03-02T05:29:31;97564.56;;;9.06;65.20
27144;BME280;14672;50.250;8.312;2024-03-02T05:31:57;97581.50;;;9.15;65.21
27144;BME280;14672;50.250;8.312;2024-03-02T05:34:23;97566.88;;;9.08;65.70
27144;BME280;14672;50.250;8.312;2024-03-02T05:36:49;97577.84;;;8.91;65.91
27144;BME280;14672;50.250;8.312;2024-03-02T05:39:14;97576.50;;;9.10;65.85
27144;BME280;14672;50.250;8.312;2024-03-02T05:41:41;97579.31;;;9.10;65.52
27144;BME280;14672;50.250;8.312;2024-03-02T05:44:07;97574.91;;;9.09;65.71
27144;BME280;14672;50.250;8.312;2024-03-02T05:46:32;97586.63;;;9.26;65.61
27144;BME280;14672;50.250;8.312;2024-03-02T05:48:59;97588.38;;;9.23;65.36
27144;BME280;14672;50.250;8.312;2024-03-02T05:51:26;97584.50;;;9.12;65.89
27144;BME280;14672;50.250;8.312;2024-03-02T05:53:52;97579.38;;;9.25;65.47
27144;BME280;14672;50.250;8.312;2024-03-02T05:56:17;97591.81;;;9.04;66.16
27144;BME280;14672;50.250;8.312;2024-03-02T05:58:43;97591.50;;;9.25;65.75
27144;BME280;14672;50.250;8.312;2024-03-02T06:01:27;97582.72;;;9.23;65.73
27144;BME280;14672;50.250;8.312;2024-03-02T06:03:57;97582.59;;;9.41;65.28
27144;BME280;14672;50.250;8.312;2024-03-02T06:06:24;97587.28;;;9.44;64.90
27144;BME280;14672;50.250;8.312;2024-03-02T06:08:51;97581.03;;;9.40;65.67
27144;BME280;14672;50.250;8.312;2024-03-02T06:11:17;97580.59;;;9.33;65.90
27144;BME280;14672;50.250;8.312;2024-03-02T06:13:44;97584.59;;;9.50;65.06
27144;BME280;14672;50.250;8.312;2024-03-02T06:16:10;97581.34;;;9.42;65.80
27144;BME280;14672;50.250;8.312;2024-03-02T06:18:36;97583.44;;;9.57;65.45
27144;BME280;14672;50.250;8.312;2024-03-02T06:21:04;97583.47;;;9.48;65.37
27144;BME280;14672;50.250;8.312;2024-03-02T06:23:30;97587.91;;;9.49;65.28
27144;BME280;14672;50.250;8.312;2024-03-02T06:25:55;97582.78;;;9.62;64.99
27144;BME280;14672;50.250;8.312;2024-03-02T06:28:21;97586.22;;;9.66;65.03
27144;BME280;14672;50.250;8.312;2024-03-02T06:30:47;97598.16;;;9.70;64.88
27144;BME280;14672;50.250;8.312;2024-03-02T06:33:12;97593.69;;;9.78;64.58
27144;BME280;14672;50.250;8.312;2024-03-02T06:35:38;97587.09;;;9.72;64.31
27144;BME280;14672;50.250;8.312;2024-03-02T06:38:04;97600.47;;;9.71;64.52
27144;BME280;14672;50.250;8.312;2024-03-02T06:40:30;97606.88;;;9.81;64.10
27144;BME280;14672;50.250;8.312;2024-03-02T06:42:56;97609.88;;;9.63;64.33
27144;BME280;14672;50.250;8.312;2024-03-02T06:45:22;97597.19;;;9.73;64.50
27144;BME280;14672;50.250;8.312;2024-03-02T06:47:47;97594.66;;;9.75;63.70
27144;BME280;14672;50.250;8.312;2024-03-02T06:50:13;97596.75;;;9.65;63.64
27144;BME280;14672;50.250;8.312;2024-03-02T06:52:39;97597.56;;;9.66;63.90
27144;BME280;14672;50.250;8.312;2024-03-02T06:55:05;97592.66;;;9.66;63.47
27144;BME280;14672;50.250;8.312;2024-03-02T06:57:31;97594.59;;;9.60;64.13
27144;BME280;14672;50.250;8.312;2024-03-02T06:59:57;97597.56;;;9.66;63.64
27144;BME280;14672;50.250;8.312;2024-03-02T07:02:25;97609.59;;;9.52;63.80
27144;BME280;14672;50.250;8.312;2024-03-02T07:04:54;97611.50;;;9.55;63.63
27144;BME280;14672;50.250;8.312;2024-03-02T07:07:19;97618.91;;;9.52;64.04
27144;BME280;14672;50.250;8.312;2024-03-02T07:09:46;97619.50;;;9.32;64.03
27144;BME280;14672;50.250;8.312;2024-03-02T07:12:12;97618.59;;;9.50;64.07
27144;BME280;14672;50.250;8.312;2024-03-02T07:14:37;97625.06;;;9.51;63.69
27144;BME280;14672;50.250;8.312;2024-03-02T07:17:22;97635.84;;;9.37;64.11
27144;BME280;14672;50.250;8.312;2024-03-02T07:19:48;97630.28;;;9.19;64.62
27144;BME280;14672;50.250;8.312;2024-03-02T07:22:13;97632.75;;;9.26;64.56
27144;BME280;14672;50.250;8.312;2024-03-02T07:24:43;97633.97;;;9.34;64.84
27144;BME280;14672;50.250;8.312;2024-03-02T07:27:12;97635.59;;;9.26;65.49
27144;BME280;14672;50.250;8.312;2024-03-02T07:29:39;97634.41;;;9.42;65.21
27144;BME280;14672;50.250;8.312;2024-03-02T07:32:07;97640.69;;;9.46;65.79
27144;BME280;14672;50.250;8.312;2024-03-02T07:34:33;97635.31;;;9.72;65.05
27144;BME280;14672;50.250;8.312;2024-03-02T07:36:59;97636.31;;;9.60;65.44
27144;BME280;14672;50.250;8.312;2024-03-02T07:39:25;97636.50;;;9.56;65.35
27144;BME280;14672;50.250;8.312;2024-03-02T07:41:51;97634.19;;;9.55;65.39
27144;BME280;14672;50.250;8.312;2024-03-02T07:44:18;97635.00;;;9.70;65.34
27144;BME280;14672;50.250;8.312;2024-03-02T07:46:48;97634.25;;;9.84;64.95
27144;BME280;14672;50.250;8.312;2024-03-02T07:49:18;97636.16;;;9.87;65.37
27144;BME280;14672;50.250;8.312;2024-03-02T07:51:44;97631.31;;;10.02;64.84
27144;BME280;14672;50.250;8.312;2024-03-02T07:54:10;97628.38;;;10.11;64.38
27144;BME280;14672;50.250;8.312;2024-03-02T07:56:36;97629.94;;;10.12;64.13
27144;BME280;14672;50.250;8.312;2024-03-02T07:59:02;97635.88;;;10.23;64.21
27144;BME280;14672;50.250;8.312;2024-03-02T08:01:31;97638.63;;;10.32;63.77
27144;BME280;14672;50.250;8.312;2024-03-02T08:04:01;97645.97;;;10.39;63.66
27144;BME280;14672;50.250;8.312;2024-03-02T08:06:29;97654.28;;;10.28;63.53
27144;BME280;14672;50.250;8.312;2024-03-02T08:08:57;97661.72;;;10.25;63.57
27144;BME280;14672;50.250;8.312;2024-03-02T08:11:23;97669.59;;;10.45;63.14
27144;BME280;14672;50.250;8.312;2024-03-02T08:13:49;97667.53;;;10.31;62.92
27144;BME280;14672;50.250;8.312;2024-03-02T08:16:18;97665.88;;;10.54;62.26
27144;BME280;14672;50.250;8.312;2024-03-02T08:18:48;97670.09;;;10.58;62.44
27144;BME280;14672;50.250;8.312;2024-03-02T08:21:14;97673.22;;;10.60;62.19
27144;BME280;14672;50.250;8.312;2024-03-02T08:23:42;97670.50;;;10.66;62.45
27144;BME280;14672;50.250;8.312;2024-03-02T08:26:11;97670.06;;;10.44;62.88
27144;BME280;14672;50.250;8.312;2024-03-02T08:28:37;97679.22;;;10.62;62.40
27144;BME280;14672;50.250;8.312;2024-03-02T08:31:04;97674.31;;;10.77;62.98
27144;BME280;14672;50.250;8.312;2024-03-02T08:33:30;97673.53;;;10.77;62.99
27144;BME280;14672;50.250;8.312;2024-03-02T08:35:56;97674.31;;;10.77;63.07
27144;BME280;14672;50.250;8.312;2024-03-02T08:38:22;97657.75;;;10.76;62.29
27144;BME280;14672;50.250;8.312;2024-03-02T08:40:49;97655.88;;;10.88;62.08
27144;BME280;14672;50.250;8.312;2024-03-02T08:43:16;97669.63;;;10.89;62.56
27144;BME280;14672;50.250;8.312;2024-03-02T08:45:41;97669.31;;;10.87;62.79
27144;BME280;14672;50.250;8.312;2024-03-02T08:48:08;97672.81;;;11.11;61.97
27144;BME280;14672;50.250;8.312;2024-03-02T08:50:37;97664.59;;;11.13;62.47
27144;BME280;14672;50.250;8.312;2024-03-02T08:53:04;97666.44;;;11.16;61.84
27144;BME280;14672;50.250;8.312;2024-03-02T08:55:30;97670.63;;;11.36;62.30
27144;BME280;14672;50.250;8.312;2024-03-02T08:57:56;97673.88;;;11.28;61.81
27144;BME280;14672;50.250;8.312;2024-03-02T09:00:23;97673.88;;;11.28;61.36
27144;BME280;14672;50.250;8.312;2024-03-02T09:02:49;97678.06;;;11.48;60.58
27144;BME280;14672;50.250;8.312;2024-03-02T09:05:15;97673.09;;;11.28;60.92
27144;BME280;14672;50.250;8.312;2024-03-02T09:07:41;97673.47;;;11.50;60.28
27144;BME280;14672;50.250;8.312;2024-03-02T09:10:08;97671.03;;;11.63;60.15
27144;BME280;14672;50.250;8.312;2024-03-02T09:12:35;97665.56;;;11.60;60.64
27144;BME280;14672;50.250;8.312;2024-03-02T09:15:02;97668.19;;;11.78;59.92
27144;BME280;14672;50.250;8.312;2024-03-02T09:17:34;97666.56;;;11.57;59.88
27144;BME280;14672;50.250;8.312;2024-03-02T09:20:00;97668.81;;;11.88;60.11
27144;BME280;14672;50.250;8.312;2024-03-02T09:22:26;97668.97;;;11.99;59.97
27144;BME280;14672;50.250;8.312;2024-03-02T09:24:51;97675.09;;;11.57;60.25
27144;BME280;14672;50.250;8.312;2024-03-02T09:27:17;97667.34;;;11.92;59.66
27144;BME280;14672;50.250;8.312;2024-03-02T09:29:43;97656.09;;;12.03;59.28
27144;BME280;14672;50.250;8.312;2024-03-02T09:32:13;97659.03;;;12.09;59.01
27144;BME280;14672;50.250;8.312;2024-03-02T09:34:40;97653.03;;;11.87;59.21
27144;BME280;14672;50.250;8.312;2024-03-02T09:37:06;97663.47;;;11.75;59.37
27144;BME280;14672;50.250;8.312;2024-03-02T09:39:33;97658.69;;;12.01;59.28
27144;BME280;14672;50.250;8.312;2024-03-02T09:41:59;97658.50;;;12.10;58.66
27144;BME280;14672;50.250;8.312;2024-03-02T09:44:26;97656.19;;;12.09;58.72
27144;BME280;14672;50.250;8.312;2024-03-02T09:46:52;97658.16;;;12.23;58.00
27144;BME280;14672;50.250;8.312;2024-03-02T09:49:18;97652.81;;;12.10;58.24
27144;BME280;14672;50.250;8.312;2024-03-02T09:51:48;97651.31;;;12.35;57.94
27144;BME280;14672;50.250;8.312;2024-03-02T09:54:16;97646.97;;;12.40;57.96
27144;BME280;14672;50.250;8.312;2024-03-02T09:56:42;97641.25;;;12.40;57.76
27144;BME280;14672;50.250;8.312;2024-03-02T09:59:08;97647.28;;;12.47;57.84
27144;BME280;14672;50.250;8.312;2024-03-02T10:01:36;97646.28;;;12.24;57.75
27144;BME280;14672;50.250;8.312;2024-03-02T10:04:02;97643.09;;;12.43;57.67
27144;BME280;14672;50.250;8.312;2024-03-02T10:06:29;97642.13;;;12.46;57.40
27144;BME280;14672;50.250;8.312;2024-03-02T10:08:55;97648.19;;;12.59;57.10
27144;BME280;14672;50.250;8.312;2024-03-02T10:11:34;97653.34;;;12.55;56.86
27144;BME280;14672;50.250;8.312;2024-03-02T10:14:11;97647.75;;;12.66;56.62
27144;BME280;14672;50.250;8.312;2024-03-02T10:16:42;97648.88;;;12.74;56.63
27144;BME280;14672;50.250;8.312;2024-03-02T10:19:19;97641.16;;;12.80;56.55
27144;BME280;14672;50.250;8.312;2024-03-02T10:21:55;97645.34;;;12.85;56.61
27144;BME280;14672;50.250;8.312;2024-03-02T10:24:22;97637.84;;;12.87;56.82
27144;BME280;14672;50.250;8.312;2024-03-02T10:26:49;97634.44;;;12.83;57.16
27144;BME280;14672;50.250;8.312;2024-03-02T10:29:16;97634.53;;;12.94;56.86
27144;BME280;14672;50.250;8.312;2024-03-02T10:31:44;97628.66;;;13.03;56.68
27144;BME280;14672;50.250;8.312;2024-03-02T10:34:12;97636.19;;;13.06;56.63
27144;BME280;14672;50.250;8.312;2024-03-02T10:36:42;97631.41;;;13.18;56.12
27144;BME280;14672;50.250;8.312;2024-03-02T10:39:09;97621.78;;;13.15;55.73
27144;BME280;14672;50.250;8.312;2024-03-02T10:41:37;97617.91;;;13.18;56.08
27144;BME280;14672;50.250;8.312;2024-03-02T10:44:05;97626.84;;;13.00;56.24
27144;BME280;14672;50.250;8.312;2024-03-02T10:46:34;97625.38;;;13.10;56.20
27144;BME280;14672;50.250;8.312;2024-03-02T10:49:02;97631.19;;;13.22;55.90
27144;BME280;14672;50.250;8.312;2024-03-02T10:51:31;97621.31;;;13.23;56.12
27144;BME280;14672;50.250;8.312;2024-03-02T10:54:02;97628.69;;;13.35;55.63
27144;BME280;14672;50.250;8.312;2024-03-02T10:56:40;97623.03;;;13.46;55.14
27144;BME280;14672;50.250;8.312;2024-03-02T11:01:59;97616.50;;;13.82;54.24
27144;BME280;14672;50.250;8.312;2024-03-02T11:04:27;97608.34;;;14.18;53.17
27144;BME280;14672;50.250;8.312;2024-03-02T11:07:08;97609.91;;;14.19;53.52
27144;BME280;14672;50.250;8.312;2024-03-02T11:09:41;97604.47;;;14.15;52.89
27144;BME280;14672;50.250;8.312;2024-03-02T11:12:19;97601.97;;;14.39;52.43
27144;BME280;14672;50.250;8.312;2024-03-02T11:14:48;97603.56;;;14.51;52.27
27144;BME280;14672;50.250;8.312;2024-03-02T11:17:17;97604.78;;;14.28;52.18
27144;BME280;14672;50.250;8.312;2024-03-02T11:19:44;97604.03;;;14.39;51.95
27144;BME280;14672;50.250;8.312;2024-03-02T11:22:12;97594.72;;;14.44;51.54
27144;BME280;14672;50.250;8.312;2024-03-02T11:24:38;97599.94;;;14.56;52.07
27144;BME280;14672;50.250;8.312;2024-03-02T11:27:07;97597.56;;;14.49;51.94
27144;BME280;14672;50.250;8.312;2024-03-02T11:32:05;97600.72;;;14.63;50.85
27144;BME280;14672;50.250;8.312;2024-03-02T11:34:34;97594.22;;;14.73;51.06
27144;BME280;14672;50.250;8.312;2024-03-02T11:37:04;97595.78;;;14.74;50.19
27144;BME280;14672;50.250;8.312;2024-03-02T11:39:31;97592.44;;;14.92;50.29
27144;BME280;14672;50.250;8.312;2024-03-02T11:41:57;97586.19;;;14.99;50.61
27144;BME280;14672;50.250;8.312;2024-03-02T11:44:27;97583.06;;;14.97;50.05
27144;BME280;14672;50.250;8.312;2024-03-02T11:47:06;97575.78;;;15.13;50.25
27144;BME280;14672;50.250;8.312;2024-03-02T11:49:49;97577.34;;;15.14;50.31
27144;BME280;14672;50.250;8.312;2024-03-02T11:52:17;97567.75;;;15.00;49.50
27144;BME280;14672;50.250;8.312;2024-03-02T11:54:48;97570.56;;;15.17;50.39
27144;BME280;14672;50.250;8.312;2024-03-02T11:57:19;97565.88;;;15.31;50.35
27144;BME280;14672;50.250;8.312;2024-03-02T11:59:45;97557.03;;;15.40;50.13
27144;BME280;14672;50.250;8.312;2024-03-02T12:02:21;97555.47;;;15.56;50.28
27144;BME280;14672;50.250;8.312;2024-03-02T12:04:48;97551.72;;;15.77;49.31
27144;BME280;14672;50.250;8.312;2024-03-02T12:07:23;97553.75;;;15.93;48.28
27144;BME280;14672;50.250;8.312;2024-03-02T12:10:02;97553.00;;;15.82;47.48
27144;BME280;14672;50.250;8.312;2024-03-02T12:12:28;97537.06;;;15.97;47.96
27144;BME280;14672;50.250;8.312;2024-03-02T12:14:55;97546.44;;;16.44;46.80
27144;BME280;14672;50.250;8.312;2024-03-02T12:17:22;97539.44;;;16.81;46.16
27144;BME280;14672;50.250;8.312;2024-03-02T12:19:48;97542.84;;;17.09;45.19
27144;BME280;14672;50.250;8.312;2024-03-02T12:22:14;97531.66;;;17.35;45.22
27144;BME280;14672;50.250;8.312;2024-03-02T12:24:41;97529.53;;;17.12;44.52
27144;BME280;14672;50.250;8.312;2024-03-02T12:27:12;97529.97;;;17.46;44.30
27144;BME280;14672;50.250;8.312;2024-03-02T12:29:38;97524.69;;;17.98;43.84
27144;BME280;14672;50.250;8.312;2024-03-02T12:32:05;97517.53;;;18.42;42.79
27144;BME280;14672;50.250;8.312;2024-03-02T12:34:31;97513.16;;;18.36;42.57
27144;BME280;14672;50.250;8.312;2024-03-02T12:36:58;97506.63;;;18.72;41.81
27144;BME280;14672;50.250;8.312;2024-03-02T12:39:24;97507.25;;;18.97;41.79
27144;BME280;14672;50.250;8.312;2024-03-02T12:41:50;97506.97;;;19.27;41.75
27144;BME280;14672;50.250;8.312;2024-03-02T12:44:20;97499.38;;;19.43;40.85
27144;BME280;14672;50.250;8.312;2024-03-02T12:46:46;97498.44;;;19.08;40.81
27144;BME280;14672;50.250;8.312;2024-03-02T12:49:14;97486.78;;;19.59;40.33
27144;BME280;14672;50.250;8.312;2024-03-02T12:51:43;97493.94;;;19.39;40.34
27144;BME280;14672;50.250;8.312;2024-03-02T12:54:12;97493.66;;;19.69;40.18
27144;BME280;14672;50.250;8.312;2024-03-02T12:56:38;97493.09;;;19.57;39.62
27144;BME280;14672;50.250;8.312;2024-03-02T12:59:06;97495.41;;;19.85;39.46
27144;BME280;14672;50.250;8.312;2024-03-02T13:01:31;97493.34;;;20.20;39.51
27144;BME280;14672;50.250;8.312;2024-03-02T13:03:58;97482.34;;;19.71;39.33
27144;BME280;14672;50.250;8.312;2024-03-02T13:06:25;97481.56;;;19.84;38.94
27144;BME280;14672;50.250;8.312;2024-03-02T13:08:54;97477.56;;;19.47;39.85
27144;BME280;14672;50.250;8.312;2024-03-02T13:11:22;97472.34;;;20.45;39.15
27144;BME280;14672;50.250;8.312;2024-03-02T13:13:49;97479.22;;;20.42;39.14
27144;BME280;14672;50.250;8.312;2024-03-02T13:16:15;97464.59;;;20.40;38.39
27144;BME280;14672;50.250;8.312;2024-03-02T13:18:42;97465.81;;;20.86;38.29